createdAt,value
2023-04-19T00:06:27.914Z,39.10
2023-04-19T00:21:29.380Z,39.10
2023-04-19T00:36:30.845Z,39.20
2023-04-19T00:51:32.305Z,39.30
2023-04-19T01:06:33.779Z,39.40
2023-04-19T01:21:35.247Z,39.30
2023-04-19T01:36:36.706Z,39.40
2023-04-19T01:51:38.182Z,39.50
2023-04-19T02:06:39.657Z,39.60
2023-04-19T02:21:41.171Z,39.70
2023-04-19T02:36:42.652Z,39.70
2023-04-19T02:51:44.124Z,39.80
2023-04-19T03:06:45.601Z,39.70
2023-04-19T03:21:47.059Z,39.70
2023-04-19T03:36:48.524Z,39.70
2023-04-19T03:51:50.007Z,39.10
2023-04-19T04:06:51.472Z,39.60
2023-04-19T04:21:52.937Z,39.50
2023-04-19T04:36:54.410Z,39.50
2023-04-19T04:51:55.875Z,39.50
2023-04-19T05:06:57.339Z,39.30
2023-04-19T05:21:58.847Z,39.20
2023-04-19T05:37:00.387Z,39.20
2023-04-19T05:52:01.855Z,39.20
2023-04-19T06:07:04.648Z,39.20
2023-04-19T06:22:07.735Z,39.20
2023-04-19T06:37:09.200Z,38.90
2023-04-19T06:52:10.653Z,38.40
2023-04-19T07:07:12.145Z,38.10
2023-04-19T07:22:14.846Z,37.70
2023-04-19T07:37:16.771Z,37.40
2023-04-19T07:52:18.251Z,37.30
2023-04-19T08:07:19.723Z,36.90
2023-04-19T08:22:21.198Z,36.70
2023-04-19T08:37:22.702Z,36.50
2023-04-19T08:52:24.192Z,36.20
2023-04-19T09:07:25.743Z,36.10
2023-04-19T09:22:27.203Z,36.00
2023-04-19T09:52:33.116Z,35.50
2023-04-19T10:07:34.726Z,35.20
2023-04-19T10:22:36.356Z,35.00
2023-04-19T10:37:37.870Z,34.70
2023-04-19T10:52:39.352Z,34.20
2023-04-19T11:07:40.841Z,34.10
2023-04-19T11:22:42.324Z,34.00
2023-04-19T11:37:43.794Z,33.40
2023-04-19T11:52:45.267Z,33.40
2023-04-19T12:07:46.751Z,33.30
2023-04-19T12:22:48.312Z,33.30
2023-04-19T12:37:49.772Z,33.30
2023-04-19T12:52:51.244Z,33.30
2023-04-19T13:07:52.729Z,33.30
2023-04-19T13:22:54.196Z,33.20
2023-04-19T13:37:55.673Z,33.20
2023-04-19T13:52:57.143Z,33.20
2023-04-19T14:07:59.734Z,33.20
2023-04-19T14:23:01.195Z,33.20
2023-04-19T14:38:02.660Z,33.10
2023-04-19T14:53:04.167Z,33.20
2023-04-19T15:08:05.644Z,33.20
2023-04-19T15:23:07.119Z,33.30
2023-04-19T15:38:08.589Z,33.40
2023-04-19T15:53:10.062Z,33.60
2023-04-19T16:08:11.548Z,33.70
2023-04-19T16:23:13.049Z,33.70
2023-04-19T16:38:14.543Z,33.70
2023-04-19T16:53:16.033Z,33.60
2023-04-19T17:08:17.495Z,33.70
2023-04-19T17:23:18.973Z,33.80
2023-04-19T17:38:20.440Z,33.90
2023-04-19T17:53:21.914Z,34.10
2023-04-19T18:08:23.448Z,34.10
2023-04-19T18:23:24.937Z,34.10
2023-04-19T18:38:26.400Z,34.10
2023-04-19T18:53:27.906Z,34.30
2023-04-19T19:08:29.423Z,34.50
2023-04-19T19:38:35.302Z,34.70
2023-04-19T19:53:36.790Z,34.80
2023-04-19T20:08:42.482Z,35.00
2023-04-19T20:23:45.601Z,35.10
2023-04-19T20:38:47.064Z,35.10
2023-04-19T20:53:48.549Z,35.10
2023-04-19T21:08:50.028Z,35.40
2023-04-19T21:23:51.502Z,35.40
2023-04-19T21:38:52.973Z,35.50
2023-04-19T21:53:54.455Z,35.50
2023-04-19T22:08:55.938Z,35.80
2023-04-19T22:23:57.419Z,36.10
2023-04-19T22:38:58.901Z,36.40
2023-04-19T22:54:00.395Z,36.40
2023-04-19T23:09:01.872Z,36.60
2023-04-19T23:24:03.338Z,36.70
2023-04-19T23:39:04.805Z,37.00
2023-04-19T23:54:06.287Z,37.10
